Time;durP1;ratioP1;P1;durP2;ratioP2;P2;SDS_P1;SDS_P2;PMS_P1;PMS_P2;Temp;Humidity;BMP_temperature;BMP_pressure;BME280_temperature;BME280_humidity;BME280_pressure;Samples;Min_cycle;Max_cycle;Signal;HPM_P1;HPM_P2
2024/02/29 00:00:09;;;;;;;;;;;3.10;81.30;;;;;;5078204;28;19935;-59
2024/02/29 00:02:42;;;;;;;;;;;3.10;81.30;;;;;;5073186;28;19932;-59
2024/02/29 00:05:22;;;;;;;;;;;3.10;81.30;;;;;;5075581;28;20317;-60
2024/02/29 00:07:55;;;;;;;;;;;3.00;81.30;;;;;;5064246;28;19928;-59
2024/02/29 00:10:22;;;;;;;;;;;3.00;81.30;;;;;;5071010;28;19934;-60
2024/02/29 00:12:57;;;;;;;;;;;2.90;81.40;;;;;;5070752;28;20049;-60
2024/02/29 00:15:31;;;;;;;;;;;2.90;81.50;;;;;;5071761;28;20379;-59
2024/02/29 00:18:03;;;;;;;;;;;2.90;81.40;;;;;;5071804;28;19932;-58
2024/02/29 00:20:36;;;;;;;;;;;2.90;81.40;;;;;;5071071;28;19932;-60
2024/02/29 00:23:10;;;;;;;;;;;2.80;81.50;;;;;;5076302;28;19925;-59
2024/02/29 00:25:43;;;;;;;;;;;2.80;81.50;;;;;;5073272;28;19924;-63
2024/02/29 00:28:17;;;;;;;;;;;2.80;81.40;;;;;;5073312;28;19928;-64
2024/02/29 00:30:50;;;;;;;;;;;2.80;81.40;;;;;;5074650;28;19956;-64
2024/02/29 00:33:24;;;;;;;;;;;2.70;81.60;;;;;;5074405;28;19989;-64
2024/02/29 00:35:57;;;;;;;;;;;2.70;81.60;;;;;;5073631;28;19978;-63
2024/02/29 00:38:30;;;;;;;;;;;2.70;81.60;;;;;;5071261;28;19931;-65
2024/02/29 00:41:04;;;;;;;;;;;2.70;81.70;;;;;;5071089;28;19933;-65
2024/02/29 00:43:38;;;;;;;;;;;2.70;81.80;;;;;;5071495;28;19924;-63
2024/02/29 00:46:11;;;;;;;;;;;2.70;81.80;;;;;;5075511;28;19938;-63
2024/02/29 00:48:44;;;;;;;;;;;2.70;81.90;;;;;;5069295;28;20004;-63
2024/02/29 00:51:17;;;;;;;;;;;2.70;82.00;;;;;;5072729;28;20003;-64
2024/02/29 00:53:51;;;;;;;;;;;2.70;82.00;;;;;;5074511;28;19974;-62
2024/02/29 00:56:24;;;;;;;;;;;2.60;81.90;;;;;;5077082;28;20446;-64
2024/02/29 00:58:58;;;;;;;;;;;2.70;81.90;;;;;;5073248;28;20383;-62
2024/02/29 01:01:32;;;;;;;;;;;2.60;81.90;;;;;;5075990;28;20823;-63
2024/02/29 01:03:58;;;;;;;;;;;2.70;81.90;;;;;;5077543;28;19932;-63
2024/02/29 01:06:32;;;;;;;;;;;2.60;81.80;;;;;;5077547;28;19970;-63
2024/02/29 01:09:05;;;;;;;;;;;2.60;81.80;;;;;;5076356;28;19924;-65
2024/02/29 01:11:37;;;;;;;;;;;2.60;81.90;;;;;;5075190;28;20020;-64
2024/02/29 01:14:12;;;;;;;;;;;2.50;81.70;;;;;;5073578;28;19939;-64
2024/02/29 01:16:45;;;;;;;;;;;2.50;81.80;;;;;;5069295;28;19925;-63
2024/02/29 01:19:18;;;;;;;;;;;2.50;81.80;;;;;;5079565;28;19932;-64
2024/02/29 01:21:51;;;;;;;;;;;2.50;81.80;;;;;;5076654;28;19928;-63
2024/02/29 01:24:25;;;;;;;;;;;2.50;81.70;;;;;;5079136;28;19931;-64
2024/02/29 01:26:58;;;;;;;;;;;2.50;81.70;;;;;;5074195;28;19925;-62
2024/02/29 01:29:32;;;;;;;;;;;2.50;81.70;;;;;;5073505;28;20298;-65
2024/02/29 01:32:06;;;;;;;;;;;2.40;81.70;;;;;;5068784;28;20019;-64
2024/02/29 01:34:38;;;;;;;;;;;2.40;81.80;;;;;;5076979;28;19953;-61
2024/02/29 01:37:12;;;;;;;;;;;2.40;81.80;;;;;;5076477;28;20619;-63
2024/02/29 01:39:45;;;;;;;;;;;2.40;81.80;;;;;;5071733;28;19933;-65
2024/02/29 01:42:18;;;;;;;;;;;2.40;81.70;;;;;;5077448;28;19932;-64
2024/02/29 01:44:54;;;;;;;;;;;2.30;81.80;;;;;;5071415;28;19960;-64
2024/02/29 01:47:28;;;;;;;;;;;2.30;81.90;;;;;;5076804;28;19935;-63
2024/02/29 01:50:03;;;;;;;;;;;2.30;81.90;;;;;;5072881;28;19924;-64
2024/02/29 01:52:37;;;;;;;;;;;2.30;81.80;;;;;;5076560;28;19934;-64
2024/02/29 01:55:05;;;;;;;;;;;2.30;81.80;;;;;;5072712;28;19932;-62
2024/02/29 01:57:38;;;;;;;;;;;2.30;81.70;;;;;;5077520;28;19932;-62
2024/02/29 02:00:14;;;;;;;;;;;2.30;81.90;;;;;;5072898;28;20383;-63
2024/02/29 02:02:47;;;;;;;;;;;2.30;81.70;;;;;;5077282;28;19997;-63
2024/02/29 02:05:20;;;;;;;;;;;2.30;81.80;;;;;;5073496;28;19947;-63
2024/02/29 02:07:53;;;;;;;;;;;2.30;81.90;;;;;;5076198;28;19924;-63
2024/02/29 02:10:19;;;;;;;;;;;2.30;81.90;;;;;;5075521;28;19939;-63
2024/02/29 02:12:53;;;;;;;;;;;2.20;82.10;;;;;;5077427;28;19935;-63
2024/02/29 02:15:27;;;;;;;;;;;2.20;82.20;;;;;;5074546;28;19925;-64
2024/02/29 02:18:00;;;;;;;;;;;2.10;82.10;;;;;;5079178;28;20324;-64
2024/02/29 02:20:35;;;;;;;;;;;2.10;82.20;;;;;;5073394;28;19982;-63
2024/02/29 02:23:09;;;;;;;;;;;2.20;82.20;;;;;;5075508;28;19936;-64
2024/02/29 02:25:42;;;;;;;;;;;2.10;82.20;;;;;;5076170;28;20012;-63
2024/02/29 02:28:15;;;;;;;;;;;2.10;82.20;;;;;;5074078;28;19987;-64
2024/02/29 02:30:48;;;;;;;;;;;2.10;82.10;;;;;;5074089;28;20302;-62
2024/02/29 02:33:21;;;;;;;;;;;2.10;82.10;;;;;;5074143;28;19932;-64
2024/02/29 02:35:55;;;;;;;;;;;2.00;82.10;;;;;;5077069;28;19975;-64
2024/02/29 02:38:29;;;;;;;;;;;2.10;82.20;;;;;;5069320;28;19928;-64
2024/02/29 02:41:02;;;;;;;;;;;2.10;82.00;;;;;;5078108;28;19936;-63
2024/02/29 02:43:34;;;;;;;;;;;2.00;82.00;;;;;;5074595;28;19931;-65
2024/02/29 02:46:08;;;;;;;;;;;2.10;82.00;;;;;;5076678;28;19935;-64
2024/02/29 02:48:41;;;;;;;;;;;2.00;82.00;;;;;;5070031;28;19924;-62
2024/02/29 02:51:15;;;;;;;;;;;2.00;81.90;;;;;;5069789;28;20367;-61
2024/02/29 02:53:49;;;;;;;;;;;2.00;81.90;;;;;;5073331;28;19964;-62
2024/02/29 02:56:22;;;;;;;;;;;2.00;81.90;;;;;;5071763;28;19928;-61
2024/02/29 02:58:54;;;;;;;;;;;2.00;82.00;;;;;;5077425;28;19928;-62
2024/02/29 03:01:35;;;;;;;;;;;2.00;82.10;;;;;;5077623;28;19932;-62
2024/02/29 03:04:08;;;;;;;;;;;2.00;82.00;;;;;;5076228;28;19924;-65
2024/02/29 03:06:42;;;;;;;;;;;2.00;82.00;;;;;;5077306;28;19924;-61
2024/02/29 03:09:16;;;;;;;;;;;1.90;82.10;;;;;;5078423;28;19932;-61
2024/02/29 03:11:49;;;;;;;;;;;2.00;82.10;;;;;;5077387;28;20015;-62
2024/02/29 03:14:22;;;;;;;;;;;2.00;82.00;;;;;;5073493;28;19928;-62
2024/02/29 03:16:57;;;;;;;;;;;1.90;82.00;;;;;;5074452;28;19928;-62
2024/02/29 03:19:31;;;;;;;;;;;1.90;82.00;;;;;;5074318;28;20445;-62
2024/02/29 03:22:06;;;;;;;;;;;1.90;82.00;;;;;;5077600;28;20271;-62
2024/02/29 03:24:39;;;;;;;;;;;1.90;82.10;;;;;;5073337;28;20553;-63
2024/02/29 03:27:13;;;;;;;;;;;1.80;82.00;;;;;;5073865;28;20007;-63
2024/02/29 03:29:46;;;;;;;;;;;1.80;82.00;;;;;;5070264;28;19928;-60
2024/02/29 03:32:19;;;;;;;;;;;1.80;82.10;;;;;;5061528;28;19978;-62
2024/02/29 03:34:52;;;;;;;;;;;1.80;82.20;;;;;;5070784;28;20363;-62
2024/02/29 03:37:26;;;;;;;;;;;1.80;82.30;;;;;;5071183;28;19932;-62
2024/02/29 03:40:00;;;;;;;;;;;1.90;82.30;;;;;;5067781;28;19924;-61
2024/02/29 03:42:33;;;;;;;;;;;1.90;82.30;;;;;;5073371;28;19950;-62
2024/02/29 03:45:07;;;;;;;;;;;1.80;82.30;;;;;;5067975;28;19924;-62
2024/02/29 03:47:41;;;;;;;;;;;1.80;82.30;;;;;;5067890;28;19925;-61
2024/02/29 03:50:14;;;;;;;;;;;1.80;82.20;;;;;;5070464;28;19931;-62
2024/02/29 03:52:48;;;;;;;;;;;1.80;82.30;;;;;;5069074;28;19928;-62
2024/02/29 03:55:22;;;;;;;;;;;1.70;82.40;;;;;;5071660;28;19981;-61
2024/02/29 03:57:55;;;;;;;;;;;1.70;82.30;;;;;;5071157;28;20011;-59
2024/02/29 04:00:28;;;;;;;;;;;1.70;82.30;;;;;;5069669;28;19993;-57
2024/02/29 04:03:01;;;;;;;;;;;1.70;82.30;;;;;;5074050;28;19928;-59
2024/02/29 04:05:34;;;;;;;;;;;1.60;82.50;;;;;;5069303;28;20027;-58
2024/02/29 04:08:11;;;;;;;;;;;1.70;82.50;;;;;;5072902;28;19936;-58
2024/02/29 04:10:48;;;;;;;;;;;1.60;82.60;;;;;;5072148;28;19930;-59
2024/02/29 04:13:22;;;;;;;;;;;1.60;82.40;;;;;;5074651;28;20452;-58
2024/02/29 04:15:56;;;;;;;;;;;1.60;82.50;;;;;;5071895;28;19932;-58
2024/02/29 04:18:29;;;;;;;;;;;1.60;82.30;;;;;;5070291;28;19931;-58
2024/02/29 04:21:08;;;;;;;;;;;1.60;82.20;;;;;;5073821;28;19925;-58
2024/02/29 04:23:43;;;;;;;;;;;1.60;82.20;;;;;;5069545;28;19924;-59
2024/02/29 04:26:24;;;;;;;;;;;1.60;82.30;;;;;;5073312;28;20322;-58
2024/02/29 04:28:57;;;;;;;;;;;1.60;82.40;;;;;;5075738;28;19928;-59
2024/02/29 04:31:30;;;;;;;;;;;1.60;82.40;;;;;;5077124;28;19986;-57
2024/02/29 04:34:03;;;;;;;;;;;1.60;82.50;;;;;;5082001;28;19924;-58
2024/02/29 04:36:37;;;;;;;;;;;1.60;82.60;;;;;;5076165;28;19935;-58
2024/02/29 04:39:13;;;;;;;;;;;1.70;82.60;;;;;;5081072;28;19993;-58
2024/02/29 04:41:47;;;;;;;;;;;1.70;82.70;;;;;;5074625;28;20334;-58
2024/02/29 04:44:13;;;;;;;;;;;1.70;82.70;;;;;;5080570;28;19939;-58
2024/02/29 04:46:47;;;;;;;;;;;1.70;82.60;;;;;;5073963;28;19990;-59
2024/02/29 04:49:20;;;;;;;;;;;1.70;82.70;;;;;;5080654;28;20356;-58
2024/02/29 04:51:53;;;;;;;;;;;1.70;82.60;;;;;;5077739;28;19924;-59
2024/02/29 04:54:28;;;;;;;;;;;1.70;82.60;;;;;;5078830;28;19928;-58
2024/02/29 04:57:02;;;;;;;;;;;1.70;82.80;;;;;;5078477;28;19924;-59
2024/02/29 04:59:35;;;;;;;;;;;1.70;82.80;;;;;;5077430;28;19977;-60
2024/02/29 05:02:09;;;;;;;;;;;1.70;82.90;;;;;;5076495;28;19925;-59
2024/02/29 05:04:43;;;;;;;;;;;1.60;82.70;;;;;;5079961;28;19928;-58
2024/02/29 05:07:10;;;;;;;;;;;1.50;82.80;;;;;;5077414;28;20002;-63
2024/02/29 05:09:45;;;;;;;;;;;1.50;82.90;;;;;;5077961;28;20445;-64
2024/02/29 05:12:22;;;;;;;;;;;1.60;82.70;;;;;;5077607;28;19929;-63
2024/02/29 05:14:56;;;;;;;;;;;1.60;82.80;;;;;;5078669;28;20385;-63
2024/02/29 05:17:23;;;;;;;;;;;1.60;82.70;;;;;;5077876;28;19935;-64
2024/02/29 05:19:58;;;;;;;;;;;1.60;82.70;;;;;;5077981;28;19970;-63
2024/02/29 05:22:32;;;;;;;;;;;1.50;82.90;;;;;;5078570;28;19975;-63
2024/02/29 05:25:08;;;;;;;;;;;1.60;82.90;;;;;;5079485;28;20236;-63
2024/02/29 05:27:41;;;;;;;;;;;1.50;83.00;;;;;;5077611;28;19928;-64
2024/02/29 05:30:14;;;;;;;;;;;1.50;82.90;;;;;;5074056;28;19932;-63
2024/02/29 05:32:49;;;;;;;;;;;1.50;83.00;;;;;;5075580;28;19963;-63
2024/02/29 05:35:15;;;;;;;;;;;1.50;83.10;;;;;;5076429;28;19928;-64
2024/02/29 05:37:49;;;;;;;;;;;1.50;83.00;;;;;;5076756;28;19931;-63
2024/02/29 05:40:23;;;;;;;;;;;1.50;83.10;;;;;;5077401;28;20298;-62
2024/02/29 05:42:57;;;;;;;;;;;1.50;82.90;;;;;;5077724;28;20003;-62
2024/02/29 05:45:30;;;;;;;;;;;1.50;83.00;;;;;;5071480;28;20360;-64
2024/02/29 05:48:04;;;;;;;;;;;1.50;83.10;;;;;;5078852;28;19925;-64
2024/02/29 05:50:37;;;;;;;;;;;1.50;83.20;;;;;;5074315;28;20288;-64
2024/02/29 05:53:10;;;;;;;;;;;1.50;83.30;;;;;;5078618;28;20287;-65
2024/02/29 05:55:45;;;;;;;;;;;1.50;83.40;;;;;;5075480;28;20375;-64
2024/02/29 05:58:12;;;;;;;;;;;1.50;83.40;;;;;;5076225;28;20053;-64
2024/02/29 06:00:45;;;;;;;;;;;1.60;83.30;;;;;;5075358;28;19932;-65
2024/02/29 06:03:18;;;;;;;;;;;1.50;83.20;;;;;;5079304;28;19924;-64
2024/02/29 06:05:51;;;;;;;;;;;1.50;83.30;;;;;;5079489;28;19928;-64
2024/02/29 06:08:24;;;;;;;;;;;1.60;83.40;;;;;;5077055;28;20371;-63
2024/02/29 06:10:52;;;;;;;;;;;1.60;83.10;;;;;;5076359;28;19928;-64
2024/02/29 06:13:28;;;;;;;;;;;1.60;83.40;;;;;;5075744;28;19955;-65
2024/02/29 06:16:03;;;;;;;;;;;1.60;83.30;;;;;;5078209;28;19928;-62
2024/02/29 06:18:36;;;;;;;;;;;1.60;83.20;;;;;;5077826;28;19935;-63
2024/02/29 06:21:09;;;;;;;;;;;1.60;83.20;;;;;;5077787;28;19960;-62
2024/02/29 06:23:43;;;;;;;;;;;1.60;83.30;;;;;;5078405;28;19924;-63
2024/02/29 06:26:17;;;;;;;;;;;1.60;83.30;;;;;;5078205;28;19928;-61
2024/02/29 06:28:51;;;;;;;;;;;1.50;83.40;;;;;;5079894;28;19929;-64
2024/02/29 06:31:25;;;;;;;;;;;1.60;83.40;;;;;;5072842;28;19931;-61
2024/02/29 06:33:59;;;;;;;;;;;1.70;83.40;;;;;;5075151;28;19928;-62
2024/02/29 06:36:32;;;;;;;;;;;1.60;83.30;;;;;;5074203;28;19947;-63
2024/02/29 06:39:07;;;;;;;;;;;1.70;83.40;;;;;;5067470;28;19932;-62
2024/02/29 06:41:43;;;;;;;;;;;1.70;83.40;;;;;;5076709;28;19928;-61
2024/02/29 06:44:17;;;;;;;;;;;1.70;83.30;;;;;;5078774;28;19947;-63
2024/02/29 06:46:50;;;;;;;;;;;1.70;83.30;;;;;;5074159;28;19927;-61
2024/02/29 06:49:23;;;;;;;;;;;1.70;83.50;;;;;;5076202;28;19932;-61
2024/02/29 06:51:57;;;;;;;;;;;1.60;83.60;;;;;;5077451;28;20425;-62
2024/02/29 06:54:31;;;;;;;;;;;1.70;83.70;;;;;;5077771;28;19924;-64
2024/02/29 06:57:05;;;;;;;;;;;1.60;83.60;;;;;;5078830;28;19924;-62
2024/02/29 06:59:39;;;;;;;;;;;1.70;83.70;;;;;;5074444;28;20023;-62
2024/02/29 07:02:12;;;;;;;;;;;1.70;83.70;;;;;;5074121;28;19970;-60
2024/02/29 07:04:45;;;;;;;;;;;1.80;83.70;;;;;;5076274;28;19994;-61
2024/02/29 07:07:18;;;;;;;;;;;1.80;83.70;;;;;;5076094;28;20019;-62
2024/02/29 07:09:53;;;;;;;;;;;1.80;83.80;;;;;;5074966;28;19924;-63
2024/02/29 07:12:27;;;;;;;;;;;1.90;83.90;;;;;;5075896;28;19932;-61
2024/02/29 07:15:02;;;;;;;;;;;2.00;84.00;;;;;;5076142;28;20359;-60
2024/02/29 07:17:35;;;;;;;;;;;1.90;84.50;;;;;;5074961;28;20371;-61
2024/02/29 07:20:12;;;;;;;;;;;2.00;84.60;;;;;;5076974;28;20038;-63
2024/02/29 07:22:46;;;;;;;;;;;2.00;84.80;;;;;;5078137;28;20345;-61
2024/02/29 07:25:20;;;;;;;;;;;2.10;85.00;;;;;;5077207;28;19936;-62
2024/02/29 07:27:57;;;;;;;;;;;2.10;85.00;;;;;;5078270;28;20401;-60
2024/02/29 07:30:30;;;;;;;;;;;2.20;84.90;;;;;;5074580;28;19924;-60
2024/02/29 07:33:04;;;;;;;;;;;2.40;85.30;;;;;;5074262;28;19956;-59
2024/02/29 07:35:37;;;;;;;;;;;2.40;85.10;;;;;;5075107;28;19928;-58
2024/02/29 07:38:10;;;;;;;;;;;2.60;85.10;;;;;;5075550;28;19925;-59
2024/02/29 07:40:43;;;;;;;;;;;2.70;84.80;;;;;;5076564;28;19924;-59
2024/02/29 07:43:17;;;;;;;;;;;2.70;84.90;;;;;;5076630;28;19972;-60
2024/02/29 07:45:51;;;;;;;;;;;2.80;85.70;;;;;;5071287;28;19928;-60
2024/02/29 07:48:26;;;;;;;;;;;2.80;84.90;;;;;;5072522;28;19924;-59
2024/02/29 07:51:00;;;;;;;;;;;2.80;84.80;;;;;;5076877;28;20389;-59
2024/02/29 07:53:33;;;;;;;;;;;2.80;85.80;;;;;;5076693;28;19928;-60
2024/02/29 07:56:06;;;;;;;;;;;2.80;85.80;;;;;;5072923;28;19935;-59
2024/02/29 07:58:41;;;;;;;;;;;2.80;85.80;;;;;;5071053;28;19929;-60
2024/02/29 08:01:15;;;;;;;;;;;2.90;86.60;;;;;;5072911;28;19967;-59
2024/02/29 08:03:48;;;;;;;;;;;3.00;86.30;;;;;;5076970;28;19928;-59
2024/02/29 08:06:22;;;;;;;;;;;3.10;86.70;;;;;;5075284;28;19964;-60
2024/02/29 08:08:55;;;;;;;;;;;3.00;86.80;;;;;;5073537;28;19924;-58
2024/02/29 08:11:29;;;;;;;;;;;3.10;86.90;;;;;;5076080;28;20039;-59
2024/02/29 08:14:04;;;;;;;;;;;3.20;86.90;;;;;;5073705;28;20546;-60
2024/02/29 08:16:37;;;;;;;;;;;3.20;86.40;;;;;;5074211;28;20268;-58
2024/02/29 08:19:04;;;;;;;;;;;3.20;86.00;;;;;;5073591;28;20367;-59
2024/02/29 08:21:37;;;;;;;;;;;3.20;86.40;;;;;;5074118;28;20379;-60
2024/02/29 08:24:10;;;;;;;;;;;3.30;87.20;;;;;;5074672;28;19971;-59
2024/02/29 08:26:43;;;;;;;;;;;3.40;87.00;;;;;;5076250;28;19928;-59
2024/02/29 08:29:18;;;;;;;;;;;3.40;86.50;;;;;;5075808;28;19963;-58
2024/02/29 08:31:52;;;;;;;;;;;3.40;86.50;;;;;;5075892;28;19924;-61
2024/02/29 08:34:26;;;;;;;;;;;3.60;87.30;;;;;;5074662;28;20375;-58
2024/02/29 08:36:59;;;;;;;;;;;3.70;87.70;;;;;;5075028;28;20017;-58
2024/02/29 08:39:33;;;;;;;;;;;3.80;87.60;;;;;;5075526;28;19924;-60
2024/02/29 08:42:07;;;;;;;;;;;3.90;87.40;;;;;;5073287;28;19983;-59
2024/02/29 08:44:43;;;;;;;;;;;4.00;87.60;;;;;;5075540;28;19924;-59
2024/02/29 08:47:16;;;;;;;;;;;4.20;87.50;;;;;;5071163;28;19931;-57
2024/02/29 08:49:52;;;;;;;;;;;4.20;87.60;;;;;;5075006;28;19990;-58
2024/02/29 08:52:26;;;;;;;;;;;4.30;87.40;;;;;;5076959;28;19959;-58
2024/02/29 08:54:59;;;;;;;;;;;4.40;87.50;;;;;;5074405;28;20370;-58
2024/02/29 08:57:32;;;;;;;;;;;4.50;87.60;;;;;;5073559;28;19932;-59
2024/02/29 09:10:30;;;;;;;;;;;5.10;87.30;;;;;;5041668;28;19935;-59
2024/02/29 09:13:03;;;;;;;;;;;5.30;87.30;;;;;;5068814;28;19968;-58
2024/02/29 09:15:32;;;;;;;;;;;5.40;87.20;;;;;;5073946;28;19931;-61
2024/02/29 09:18:05;;;;;;;;;;;5.60;86.90;;;;;;5075386;28;20341;-58
2024/02/29 09:20:38;;;;;;;;;;;5.70;86.80;;;;;;5077237;28;20333;-59
2024/02/29 09:23:11;;;;;;;;;;;5.70;86.50;;;;;;5081982;28;19924;-60
2024/02/29 09:25:44;;;;;;;;;;;5.80;86.30;;;;;;5067836;28;19998;-59
2024/02/29 09:28:17;;;;;;;;;;;5.90;86.10;;;;;;5079809;28;20029;-58
2024/02/29 09:30:53;;;;;;;;;;;6.10;86.10;;;;;;5079317;28;19928;-59
2024/02/29 09:33:27;;;;;;;;;;;6.10;85.80;;;;;;5073981;28;19939;-61
2024/02/29 09:35:57;;;;;;;;;;;6.20;85.70;;;;;;5077986;28;19939;-58
2024/02/29 09:38:30;;;;;;;;;;;6.30;85.40;;;;;;5079120;28;19938;-60
2024/02/29 09:41:04;;;;;;;;;;;6.50;85.10;;;;;;5073066;28;20003;-58
2024/02/29 09:43:39;;;;;;;;;;;6.60;84.40;;;;;;5071901;28;19924;-58
2024/02/29 09:46:13;;;;;;;;;;;6.70;84.10;;;;;;5077301;28;19999;-73
2024/02/29 09:48:48;;;;;;;;;;;6.70;84.20;;;;;;5079912;28;19934;-74
2024/02/29 09:51:22;;;;;;;;;;;6.90;83.70;;;;;;5073655;28;19925;-73
2024/02/29 09:53:57;;;;;;;;;;;6.90;83.80;;;;;;5078680;28;19955;-72
2024/02/29 09:56:30;;;;;;;;;;;7.10;83.40;;;;;;5080037;28;19933;-70
2024/02/29 09:59:03;;;;;;;;;;;7.20;83.20;;;;;;5062111;28;19933;-73
2024/02/29 10:01:37;;;;;;;;;;;7.30;82.60;;;;;;5072689;28;20344;-72
2024/02/29 10:04:11;;;;;;;;;;;7.50;82.30;;;;;;5074973;28;19932;-74
2024/02/29 10:06:44;;;;;;;;;;;7.60;81.80;;;;;;5070606;28;19924;-74
2024/02/29 10:09:11;;;;;;;;;;;7.70;81.60;;;;;;5075960;28;19934;-73
2024/02/29 10:11:44;;;;;;;;;;;7.80;81.00;;;;;;5074200;28;19934;-71
2024/02/29 10:14:20;;;;;;;;;;;7.90;81.10;;;;;;5074374;28;19924;-75
2024/02/29 10:16:56;;;;;;;;;;;8.00;80.30;;;;;;5075516;28;20032;-73
2024/02/29 10:19:31;;;;;;;;;;;8.20;79.70;;;;;;5077425;28;19950;-74
2024/02/29 10:22:04;;;;;;;;;;;8.20;79.40;;;;;;5076031;28;19924;-71
2024/02/29 10:24:38;;;;;;;;;;;8.40;79.00;;;;;;5073512;28;19924;-74
2024/02/29 10:27:12;;;;;;;;;;;8.50;78.20;;;;;;5076718;28;19928;-72
2024/02/29 10:29:54;;;;;;;;;;;8.60;77.90;;;;;;5079620;28;20779;-74
2024/02/29 10:32:30;;;;;;;;;;;8.70;78.50;;;;;;5077165;28;19932;-71
2024/02/29 10:35:16;;;;;;;;;;;8.80;77.50;;;;;;5079276;28;20004;-69
2024/02/29 10:37:52;;;;;;;;;;;8.90;77.20;;;;;;5076305;28;20260;-71
2024/02/29 10:40:25;;;;;;;;;;;9.10;77.00;;;;;;5069604;28;20524;-74
2024/02/29 10:42:59;;;;;;;;;;;9.20;76.80;;;;;;5062854;28;19934;-73
2024/02/29 10:45:33;;;;;;;;;;;9.30;76.50;;;;;;5075982;28;19925;-72
2024/02/29 10:48:13;;;;;;;;;;;9.40;76.10;;;;;;5078009;28;19932;-72
2024/02/29 10:50:53;;;;;;;;;;;9.50;76.00;;;;;;5076274;28;19934;-74
2024/02/29 10:53:33;;;;;;;;;;;9.60;75.70;;;;;;5076198;28;19928;-71
2024/02/29 10:56:09;;;;;;;;;;;9.70;75.60;;;;;;5075340;28;19931;-57
2024/02/29 10:58:43;;;;;;;;;;;9.70;75.40;;;;;;5074213;28;19931;-57
2024/02/29 11:01:17;;;;;;;;;;;9.80;74.60;;;;;;5068948;28;19985;-57
2024/02/29 11:03:53;;;;;;;;;;;9.90;75.00;;;;;;5073877;28;19928;-57
2024/02/29 11:06:27;;;;;;;;;;;9.90;74.40;;;;;;5073168;28;19925;-57
2024/02/29 11:09:01;;;;;;;;;;;10.00;74.60;;;;;;5071523;28;19925;-58
2024/02/29 11:11:35;;;;;;;;;;;9.90;73.80;;;;;;5074493;28;19928;-58
2024/02/29 11:14:08;;;;;;;;;;;10.00;73.40;;;;;;5074432;28;20323;-58
2024/02/29 11:16:37;;;;;;;;;;;10.10;73.50;;;;;;5072243;28;20329;-58
2024/02/29 11:19:16;;;;;;;;;;;10.30;73.40;;;;;;5075791;28;20963;-58
2024/02/29 11:21:49;;;;;;;;;;;10.30;73.20;;;;;;5071069;28;20268;-57
2024/02/29 11:24:23;;;;;;;;;;;10.40;72.70;;;;;;5076768;28;20464;-57
2024/02/29 11:26:56;;;;;;;;;;;10.40;72.60;;;;;;5072590;28;19931;-58
2024/02/29 11:29:23;;;;;;;;;;;10.40;72.50;;;;;;5076348;28;19948;-58
2024/02/29 11:31:57;;;;;;;;;;;10.50;72.90;;;;;;5074776;28;19936;-57
2024/02/29 11:34:31;;;;;;;;;;;10.40;72.40;;;;;;5075811;28;19925;-58
2024/02/29 11:37:07;;;;;;;;;;;10.50;72.30;;;;;;5077644;28;20382;-58
2024/02/29 11:39:41;;;;;;;;;;;10.40;71.90;;;;;;5067621;28;19935;-58
2024/02/29 11:42:14;;;;;;;;;;;10.50;71.90;;;;;;5076427;28;19936;-58
2024/02/29 11:44:47;;;;;;;;;;;10.50;72.10;;;;;;5075151;28;20011;-58
2024/02/29 11:47:20;;;;;;;;;;;10.50;72.00;;;;;;5068429;28;19924;-58
2024/02/29 11:49:54;;;;;;;;;;;10.50;71.40;;;;;;5075935;28;20005;-59
2024/02/29 11:52:28;;;;;;;;;;;10.50;71.70;;;;;;5072766;28;20019;-59
2024/02/29 11:55:01;;;;;;;;;;;10.50;71.70;;;;;;5071418;28;20370;-58
2024/02/29 11:57:34;;;;;;;;;;;10.50;72.00;;;;;;5071640;28;19928;-58
2024/02/29 12:00:08;;;;;;;;;;;10.60;71.50;;;;;;5072381;28;19929;-56
2024/02/29 12:02:55;;;;;;;;;;;10.50;71.60;;;;;;5075517;28;25241;-57
2024/02/29 12:05:37;;;;;;;;;;;10.50;71.90;;;;;;5068740;28;19932;-58
2024/02/29 12:08:10;;;;;;;;;;;10.40;71.90;;;;;;5071332;28;19929;-60
2024/02/29 12:10:44;;;;;;;;;;;10.40;72.00;;;;;;5072724;28;19929;-59
2024/02/29 12:13:17;;;;;;;;;;;10.40;72.40;;;;;;5074075;28;20402;-60
2024/02/29 12:15:50;;;;;;;;;;;10.40;72.00;;;;;;5070976;28;20430;-60
2024/02/29 12:18:23;;;;;;;;;;;10.40;71.90;;;;;;5075084;28;19932;-58
2024/02/29 12:20:52;;;;;;;;;;;10.40;72.30;;;;;;5073030;28;19946;-59
2024/02/29 12:23:28;;;;;;;;;;;10.40;72.60;;;;;;5072828;28;19936;-58
2024/02/29 12:26:11;;;;;;;;;;;10.40;72.60;;;;;;5075856;28;20305;-59
2024/02/29 12:28:44;;;;;;;;;;;10.30;72.70;;;;;;5072335;28;19931;-60
2024/02/29 12:31:17;;;;;;;;;;;10.40;72.80;;;;;;5071487;28;19928;-59
2024/02/29 12:33:52;;;;;;;;;;;10.30;72.90;;;;;;5075996;28;19935;-60
2024/02/29 12:36:28;;;;;;;;;;;10.40;72.90;;;;;;5073594;28;20011;-60
2024/02/29 12:39:02;;;;;;;;;;;10.40;72.80;;;;;;5074419;28;19928;-59
2024/02/29 12:41:35;;;;;;;;;;;10.40;73.50;;;;;;5074371;28;19967;-59
2024/02/29 12:44:09;;;;;;;;;;;10.40;73.20;;;;;;5073610;28;20007;-60
2024/02/29 12:46:44;;;;;;;;;;;10.40;73.20;;;;;;5071507;28;20019;-59
2024/02/29 12:49:17;;;;;;;;;;;10.30;73.10;;;;;;5069954;28;19971;-59
2024/02/29 12:51:51;;;;;;;;;;;10.40;73.20;;;;;;5074791;28;19932;-58
2024/02/29 12:54:25;;;;;;;;;;;10.30;73.20;;;;;;5075917;28;20043;-58
2024/02/29 12:56:58;;;;;;;;;;;10.30;73.10;;;;;;5078174;28;19935;-60
2024/02/29 12:59:31;;;;;;;;;;;10.40;73.20;;;;;;5077163;28;19939;-60
2024/02/29 13:01:59;;;;;;;;;;;10.30;73.00;;;;;;5079173;28;19924;-59
2024/02/29 13:04:32;;;;;;;;;;;10.30;73.40;;;;;;5079486;28;19924;-60
2024/02/29 13:07:06;;;;;;;;;;;10.30;73.00;;;;;;5068170;28;19932;-60
2024/02/29 13:09:40;;;;;;;;;;;10.30;73.30;;;;;;5077698;28;20852;-59
2024/02/29 13:12:13;;;;;;;;;;;10.30;73.00;;;;;;5076231;28;20011;-59
2024/02/29 13:14:46;;;;;;;;;;;10.30;73.70;;;;;;5075691;28;19924;-59
2024/02/29 13:17:19;;;;;;;;;;;10.20;73.20;;;;;;5076808;28;20028;-61
2024/02/29 13:19:52;;;;;;;;;;;10.20;73.30;;;;;;5074702;28;19928;-62
2024/02/29 13:22:26;;;;;;;;;;;10.20;73.10;;;;;;5077798;28;19972;-62
2024/02/29 13:25:00;;;;;;;;;;;10.20;73.70;;;;;;5075271;28;19933;-62
2024/02/29 13:27:34;;;;;;;;;;;10.20;73.40;;;;;;5079449;28;20022;-61
2024/02/29 13:30:07;;;;;;;;;;;10.20;73.30;;;;;;5075546;28;19932;-62
2024/02/29 13:32:34;;;;;;;;;;;10.20;74.10;;;;;;5074251;28;19932;-61
2024/02/29 13:35:08;;;;;;;;;;;10.20;73.40;;;;;;5074779;28;19932;-62
2024/02/29 13:37:42;;;;;;;;;;;10.20;73.60;;;;;;5076208;28;20090;-61
2024/02/29 13:40:16;;;;;;;;;;;10.20;73.40;;;;;;5074993;28;19924;-61
2024/02/29 13:42:55;;;;;;;;;;;10.20;73.70;;;;;;5078480;28;20401;-62
2024/02/29 13:45:32;;;;;;;;;;;10.20;73.60;;;;;;5077319;28;19928;-62
2024/02/29 13:48:05;;;;;;;;;;;10.10;74.10;;;;;;5077280;28;19935;-60
2024/02/29 13:50:32;;;;;;;;;;;10.10;73.40;;;;;;5074742;28;19984;-61
2024/02/29 13:53:08;;;;;;;;;;;10.10;73.10;;;;;;5074486;28;19986;-61
2024/02/29 13:55:41;;;;;;;;;;;10.10;74.00;;;;;;5075891;28;19928;-60
2024/02/29 13:58:08;;;;;;;;;;;10.10;73.50;;;;;;5077344;28;20302;-63
2024/02/29 14:00:41;;;;;;;;;;;10.10;73.60;;;;;;5069903;28;20325;-61
2024/02/29 14:03:14;;;;;;;;;;;10.10;73.80;;;;;;5075615;28;20055;-63
2024/02/29 14:05:48;;;;;;;;;;;10.10;73.70;;;;;;5076356;28;19929;-62
2024/02/29 14:08:23;;;;;;;;;;;10.00;73.70;;;;;;5067097;28;19924;-60
2024/02/29 14:10:57;;;;;;;;;;;10.00;73.50;;;;;;5076145;28;20535;-62
2024/02/29 14:13:30;;;;;;;;;;;10.10;74.10;;;;;;5075442;28;19925;-61
2024/02/29 14:16:10;;;;;;;;;;;10.10;73.90;;;;;;5076789;28;19924;-61
2024/02/29 14:18:44;;;;;;;;;;;10.10;73.60;;;;;;5077079;28;19981;-63
2024/02/29 14:21:18;;;;;;;;;;;10.00;73.70;;;;;;5077619;28;19928;-62
2024/02/29 14:23:53;;;;;;;;;;;10.00;74.00;;;;;;5078280;28;19924;-62
2024/02/29 14:26:27;;;;;;;;;;;10.00;74.00;;;;;;5073458;28;19928;-58
2024/02/29 14:29:02;;;;;;;;;;;10.00;74.20;;;;;;5075693;28;19933;-57
2024/02/29 14:31:35;;;;;;;;;;;9.90;74.20;;;;;;5076808;28;20379;-57
2024/02/29 14:34:08;;;;;;;;;;;10.00;74.20;;;;;;5075121;28;19928;-59
2024/02/29 14:36:42;;;;;;;;;;;9.90;74.20;;;;;;5077715;28;19928;-59
2024/02/29 14:39:19;;;;;;;;;;;9.90;74.50;;;;;;5078149;28;19931;-58
2024/02/29 14:41:53;;;;;;;;;;;9.90;74.30;;;;;;5077565;28;19994;-57
2024/02/29 14:44:27;;;;;;;;;;;10.00;74.40;;;;;;5074672;28;19924;-55
2024/02/29 14:47:07;;;;;;;;;;;9.90;74.20;;;;;;5076346;28;20363;-58
2024/02/29 14:49:40;;;;;;;;;;;9.90;74.40;;;;;;5074762;28;20019;-58
2024/02/29 14:52:13;;;;;;;;;;;9.90;74.40;;;;;;5075683;28;19978;-57
2024/02/29 14:54:48;;;;;;;;;;;9.90;74.50;;;;;;5075789;28;19924;-58
2024/02/29 14:57:21;;;;;;;;;;;9.90;74.60;;;;;;5073110;28;20626;-58
2024/02/29 14:59:54;;;;;;;;;;;9.90;74.30;;;;;;5075453;28;19943;-59
2024/02/29 15:02:27;;;;;;;;;;;9.90;74.40;;;;;;5074017;28;19930;-58
2024/02/29 15:05:00;;;;;;;;;;;9.80;74.20;;;;;;5076524;28;19924;-58
2024/02/29 15:07:33;;;;;;;;;;;9.90;75.00;;;;;;5078811;28;20291;-59
2024/02/29 15:10:10;;;;;;;;;;;9.80;74.50;;;;;;5074888;28;19925;-58
2024/02/29 15:12:44;;;;;;;;;;;9.80;74.50;;;;;;5071688;28;19989;-57